Abbeville-Buigny-Saint-Maclou Airport


Codes: LFOI/XAB
Name: Abbeville-Buigny-Saint-Maclou Airport
City: Abbeville (Buigny/Saint-Maclou)
Country: France
Elevation: 220 ft.

Photos at Abbeville-Buigny-Saint-Maclou Airport


   Photos courtesy of SpottingLog. You can add your own sightings and photos by signing up for a free trial today.



No photos found.

Weather at Abbeville-Buigny-Saint-Maclou Airport


Time (UTC)DescriptionTempratureWindCloud coverageVisibilityPressureHumidity
19-Apr-2024 03:00Light Rain8°C18 mph, W100%10000m1018hPa90%
19-Apr-2024 06:00Light Rain8°C20 mph, W100%10000m1017hPa92%
19-Apr-2024 09:00Light Rain9°C18 mph, W100%10000m1017hPa91%
19-Apr-2024 12:00Light Rain10°C18 mph, W100%10000m1015hPa92%
19-Apr-2024 15:00Light Rain11°C18 mph, NW74%10000m1016hPa75%
19-Apr-2024 18:00Light Rain8°C13 mph, N50%10000m1019hPa81%
19-Apr-2024 21:00Clear Sky4°C7 mph, NW5%10000m1022hPa80%
20-Apr-2024 00:00Clear Sky4°C11 mph, NW5%10000m1023hPa74%
20-Apr-2024 03:00Broken Clouds4°C11 mph, N70%10000m1024hPa65%
20-Apr-2024 06:00Overcast Clouds5°C11 mph, N85%10000m1025hPa67%
20-Apr-2024 09:00Light Rain8°C16 mph, N96%10000m1027hPa67%
20-Apr-2024 12:00Light Rain8°C13 mph, N97%10000m1027hPa69%
20-Apr-2024 15:00Light Rain8°C13 mph, N100%10000m1027hPa69%
20-Apr-2024 18:00Light Rain6°C13 mph, N85%10000m1028hPa77%
20-Apr-2024 21:00Broken Clouds3°C4 mph, N72%10000m1029hPa83%
21-Apr-2024 00:00Light Rain5°C9 mph, N86%10000m1028hPa79%
21-Apr-2024 03:00Light Rain5°C11 mph, N100%10000m1028hPa80%
21-Apr-2024 06:00Overcast Clouds5°C9 mph, N100%10000m1028hPa78%
21-Apr-2024 09:00Light Rain9°C13 mph, N81%10000m1028hPa65%
21-Apr-2024 12:00Light Rain10°C16 mph, NE87%10000m1028hPa64%
21-Apr-2024 15:00Light Rain9°C13 mph, N100%10000m1028hPa70%
21-Apr-2024 18:00Broken Clouds7°C13 mph, N70%10000m1028hPa77%
21-Apr-2024 21:00Few Clouds3°C7 mph, N16%10000m1029hPa89%
22-Apr-2024 00:00Few Clouds3°C7 mph, N14%10000m1029hPa90%
22-Apr-2024 03:00Clear Sky2°C4 mph, NE9%10000m1029hPa92%
22-Apr-2024 06:00Clear Sky3°C4 mph, NE9%10000m1029hPa92%
22-Apr-2024 09:00Scattered Clouds9°C11 mph, NE39%10000m1028hPa62%
22-Apr-2024 12:00Light Rain10°C11 mph, N70%10000m1027hPa61%
22-Apr-2024 15:00Light Rain10°C13 mph, N100%10000m1026hPa57%
22-Apr-2024 18:00Overcast Clouds7°C9 mph, N100%10000m1025hPa73%
22-Apr-2024 21:00Overcast Clouds5°C4 mph, N99%10000m1025hPa82%
23-Apr-2024 00:00Overcast Clouds4°C2 mph, NE99%10000m1023hPa79%
23-Apr-2024 03:00Light Rain4°C4 mph, NE100%10000m1021hPa88%
23-Apr-2024 06:00Light Rain4°C2 mph, E100%10000m1020hPa93%
23-Apr-2024 09:00Overcast Clouds7°C9 mph, NE99%10000m1019hPa66%
23-Apr-2024 12:00Light Rain10°C11 mph, NE85%10000m1018hPa49%
23-Apr-2024 15:00Overcast Clouds11°C13 mph, NE96%10000m1018hPa46%
23-Apr-2024 18:00Broken Clouds7°C13 mph, N71%10000m1018hPa71%
23-Apr-2024 21:00Clear Sky3°C7 mph, N6%10000m1020hPa85%
24-Apr-2024 00:00Few Clouds2°C4 mph, NE11%10000m1019hPa87%